sensor_id;sensor_type;location;lat;lon;timestamp;temperature;humidity
36594;DHT22;22603;47.900;8.146;2023-03-05T00:01:59;-0.50;99.90
36594;DHT22;22603;47.900;8.146;2023-03-05T00:04:48;-0.50;99.90
36594;DHT22;22603;47.900;8.146;2023-03-05T00:07:35;-0.60;99.90
36594;DHT22;22603;47.900;8.146;2023-03-05T00:10:22;-0.60;99.90
36594;DHT22;22603;47.900;8.146;2023-03-05T00:13:09;-0.60;99.90
36594;DHT22;22603;47.900;8.146;2023-03-05T00:15:56;-0.40;99.90
36594;DHT22;22603;47.900;8.146;2023-03-05T00:18:43;-0.60;99.90
36594;DHT22;22603;47.900;8.146;2023-03-05T00:21:33;-0.50;99.90
36594;DHT22;22603;47.900;8.146;2023-03-05T00:24:21;-0.40;99.90
36594;DHT22;22603;47.900;8.146;2023-03-05T00:27:08;-0.50;99.90
36594;DHT22;22603;47.900;8.146;2023-03-05T00:29:55;-0.50;99.90
36594;DHT22;22603;47.900;8.146;2023-03-05T00:32:42;-0.50;99.90
36594;DHT22;22603;47.900;8.146;2023-03-05T00:35:29;-0.30;99.90
36594;DHT22;22603;47.900;8.146;2023-03-05T00:38:17;-0.40;99.90
36594;DHT22;22603;47.900;8.146;2023-03-05T00:41:04;-0.40;99.90
36594;DHT22;22603;47.900;8.146;2023-03-05T00:43:51;-0.40;99.90
36594;DHT22;22603;47.900;8.146;2023-03-05T00:46:38;-0.40;99.90
36594;DHT22;22603;47.900;8.146;2023-03-05T00:49:26;-0.30;99.90
36594;DHT22;22603;47.900;8.146;2023-03-05T00:52:13;-0.30;99.90
36594;DHT22;22603;47.900;8.146;2023-03-05T00:55:01;-0.30;99.90
36594;DHT22;22603;47.900;8.146;2023-03-05T00:57:48;-0.10;99.90
36594;DHT22;22603;47.900;8.146;2023-03-05T01:00:35;-0.30;99.90
36594;DHT22;22603;47.900;8.146;2023-03-05T01:03:22;-0.30;99.90
36594;DHT22;22603;47.900;8.146;2023-03-05T01:06:11;-0.30;99.90
36594;DHT22;22603;47.900;8.146;2023-03-05T01:08:59;-0.20;99.90
36594;DHT22;22603;47.900;8.146;2023-03-05T01:11:47;-0.20;99.90
36594;DHT22;22603;47.900;8.146;2023-03-05T01:14:34;-0.60;99.90
36594;DHT22;22603;47.900;8.146;2023-03-05T01:17:21;-0.50;99.90
36594;DHT22;22603;47.900;8.146;2023-03-05T01:20:11;-0.60;99.90
36594;DHT22;22603;47.900;8.146;2023-03-05T01:22:58;-0.70;99.90
36594;DHT22;22603;47.900;8.146;2023-03-05T01:25:52;-0.70;99.90
36594;DHT22;22603;47.900;8.146;2023-03-05T01:28:41;-0.70;99.90
36594;DHT22;22603;47.900;8.146;2023-03-05T01:31:28;-0.70;99.90
36594;DHT22;22603;47.900;8.146;2023-03-05T01:34:15;-0.60;99.90
36594;DHT22;22603;47.900;8.146;2023-03-05T01:37:03;-0.90;99.90
36594;DHT22;22603;47.900;8.146;2023-03-05T01:39:50;-1.00;99.90
36594;DHT22;22603;47.900;8.146;2023-03-05T01:42:37;-1.10;99.90
36594;DHT22;22603;47.900;8.146;2023-03-05T01:45:25;-1.20;99.90
36594;DHT22;22603;47.900;8.146;2023-03-05T01:48:12;-1.10;99.90
36594;DHT22;22603;47.900;8.146;2023-03-05T01:50:59;-1.30;99.90
36594;DHT22;22603;47.900;8.146;2023-03-05T01:53:46;-1.40;99.90
36594;DHT22;22603;47.900;8.146;2023-03-05T01:56:33;-1.50;99.90
36594;DHT22;22603;47.900;8.146;2023-03-05T01:59:22;-1.50;99.90
36594;DHT22;22603;47.900;8.146;2023-03-05T02:02:12;-1.60;99.90
36594;DHT22;22603;47.900;8.146;2023-03-05T02:05:01;-1.50;99.90
36594;DHT22;22603;47.900;8.146;2023-03-05T02:07:49;-1.70;99.90
36594;DHT22;22603;47.900;8.146;2023-03-05T02:10:37;-1.40;99.90
36594;DHT22;22603;47.900;8.146;2023-03-05T02:13:27;-1.40;99.90
36594;DHT22;22603;47.900;8.146;2023-03-05T02:16:16;-1.80;99.90
36594;DHT22;22603;47.900;8.146;2023-03-05T02:19:06;-1.80;99.90
36594;DHT22;22603;47.900;8.146;2023-03-05T02:21:54;-1.80;99.90
36594;DHT22;22603;47.900;8.146;2023-03-05T02:24:41;-1.80;99.90
36594;DHT22;22603;47.900;8.146;2023-03-05T02:27:30;-1.80;99.90
36594;DHT22;22603;47.900;8.146;2023-03-05T02:30:20;-1.90;99.90
36594;DHT22;22603;47.900;8.146;2023-03-05T02:33:08;-1.90;99.90
36594;DHT22;22603;47.900;8.146;2023-03-05T02:35:55;-2.00;99.90
36594;DHT22;22603;47.900;8.146;2023-03-05T02:38:44;-2.00;99.90
36594;DHT22;22603;47.900;8.146;2023-03-05T02:41:32;-1.30;99.90
36594;DHT22;22603;47.900;8.146;2023-03-05T02:44:18;-1.80;99.90
36594;DHT22;22603;47.900;8.146;2023-03-05T02:47:06;-2.00;99.90
36594;DHT22;22603;47.900;8.146;2023-03-05T02:49:53;-2.00;99.90
36594;DHT22;22603;47.900;8.146;2023-03-05T02:52:40;-2.00;99.90
36594;DHT22;22603;47.900;8.146;2023-03-05T02:55:29;-2.20;99.90
36594;DHT22;22603;47.900;8.146;2023-03-05T02:58:16;-2.20;99.90
36594;DHT22;22603;47.900;8.146;2023-03-05T03:01:03;-2.30;99.90
36594;DHT22;22603;47.900;8.146;2023-03-05T03:03:51;-2.20;99.90
36594;DHT22;22603;47.900;8.146;2023-03-05T03:06:38;-2.30;99.90
36594;DHT22;22603;47.900;8.146;2023-03-05T03:09:25;-2.40;99.90
36594;DHT22;22603;47.900;8.146;2023-03-05T03:12:14;-2.40;99.90
36594;DHT22;22603;47.900;8.146;2023-03-05T03:15:01;-2.50;99.90
36594;DHT22;22603;47.900;8.146;2023-03-05T03:17:48;-2.50;99.90
36594;DHT22;22603;47.900;8.146;2023-03-05T03:20:36;-2.50;99.90
36594;DHT22;22603;47.900;8.146;2023-03-05T03:23:24;-2.60;99.90
36594;DHT22;22603;47.900;8.146;2023-03-05T03:26:11;-2.70;99.90
36594;DHT22;22603;47.900;8.146;2023-03-05T03:28:59;-2.80;99.90
36594;DHT22;22603;47.900;8.146;2023-03-05T03:31:47;-2.60;99.90
36594;DHT22;22603;47.900;8.146;2023-03-05T03:34:34;-2.70;99.90
36594;DHT22;22603;47.900;8.146;2023-03-05T03:37:21;-2.70;99.90
36594;DHT22;22603;47.900;8.146;2023-03-05T03:40:10;-2.90;99.90
36594;DHT22;22603;47.900;8.146;2023-03-05T03:42:57;-3.00;99.90
36594;DHT22;22603;47.900;8.146;2023-03-05T03:45:46;-2.90;99.90
36594;DHT22;22603;47.900;8.146;2023-03-05T03:48:33;-3.10;99.90
36594;DHT22;22603;47.900;8.146;2023-03-05T03:51:21;-3.10;99.90
36594;DHT22;22603;47.900;8.146;2023-03-05T03:54:08;-3.10;99.90
36594;DHT22;22603;47.900;8.146;2023-03-05T03:56:55;-3.20;99.90
36594;DHT22;22603;47.900;8.146;2023-03-05T03:59:41;-3.10;99.90
36594;DHT22;22603;47.900;8.146;2023-03-05T04:02:31;-3.30;99.90
36594;DHT22;22603;47.900;8.146;2023-03-05T04:05:19;-2.50;99.90
36594;DHT22;22603;47.900;8.146;2023-03-05T04:08:05;-3.30;99.90
36594;DHT22;22603;47.900;8.146;2023-03-05T04:10:56;-3.30;99.90
36594;DHT22;22603;47.900;8.146;2023-03-05T04:13:43;-3.20;99.90
36594;DHT22;22603;47.900;8.146;2023-03-05T04:16:31;-2.60;99.90
36594;DHT22;22603;47.900;8.146;2023-03-05T04:19:19;-3.20;99.90
36594;DHT22;22603;47.900;8.146;2023-03-05T04:22:07;-2.90;99.90
36594;DHT22;22603;47.900;8.146;2023-03-05T04:24:56;-3.10;99.90
36594;DHT22;22603;47.900;8.146;2023-03-05T04:27:43;-3.10;99.90
36594;DHT22;22603;47.900;8.146;2023-03-05T04:30:30;-3.00;99.90
36594;DHT22;22603;47.900;8.146;2023-03-05T04:33:18;-3.00;99.90
36594;DHT22;22603;47.900;8.146;2023-03-05T04:36:07;-2.90;99.90
36594;DHT22;22603;47.900;8.146;2023-03-05T04:38:54;-2.90;99.90
36594;DHT22;22603;47.900;8.146;2023-03-05T04:41:41;-2.90;99.90
36594;DHT22;22603;47.900;8.146;2023-03-05T04:44:28;-3.00;99.90
36594;DHT22;22603;47.900;8.146;2023-03-05T04:47:16;-3.00;99.90
36594;DHT22;22603;47.900;8.146;2023-03-05T04:50:04;-2.90;99.90
36594;DHT22;22603;47.900;8.146;2023-03-05T04:52:53;-2.90;99.90
36594;DHT22;22603;47.900;8.146;2023-03-05T04:55:40;-2.80;99.90
36594;DHT22;22603;47.900;8.146;2023-03-05T04:58:29;-2.70;99.90
36594;DHT22;22603;47.900;8.146;2023-03-05T05:01:17;-2.70;99.90
36594;DHT22;22603;47.900;8.146;2023-03-05T05:04:04;-2.50;99.90
36594;DHT22;22603;47.900;8.146;2023-03-05T05:06:54;-2.70;99.90
36594;DHT22;22603;47.900;8.146;2023-03-05T05:09:42;-2.70;99.90
36594;DHT22;22603;47.900;8.146;2023-03-05T05:12:30;-2.50;99.90
36594;DHT22;22603;47.900;8.146;2023-03-05T05:15:17;-2.60;99.90
36594;DHT22;22603;47.900;8.146;2023-03-05T05:18:04;-2.70;99.90
36594;DHT22;22603;47.900;8.146;2023-03-05T05:20:51;-2.70;99.90
36594;DHT22;22603;47.900;8.146;2023-03-05T05:23:39;-2.70;99.90
36594;DHT22;22603;47.900;8.146;2023-03-05T05:26:28;-2.60;99.90
36594;DHT22;22603;47.900;8.146;2023-03-05T05:29:15;-2.70;99.90
36594;DHT22;22603;47.900;8.146;2023-03-05T05:32:02;-2.80;99.90
36594;DHT22;22603;47.900;8.146;2023-03-05T05:34:52;-2.60;99.90
36594;DHT22;22603;47.900;8.146;2023-03-05T05:37:39;-2.70;99.90
36594;DHT22;22603;47.900;8.146;2023-03-05T05:40:26;-2.70;99.90
36594;DHT22;22603;47.900;8.146;2023-03-05T05:43:14;-2.10;99.90
36594;DHT22;22603;47.900;8.146;2023-03-05T05:46:03;-2.50;99.90
36594;DHT22;22603;47.900;8.146;2023-03-05T05:48:50;-2.70;99.90
36594;DHT22;22603;47.900;8.146;2023-03-05T05:51:37;-1.90;99.90
36594;DHT22;22603;47.900;8.146;2023-03-05T05:54:25;-2.40;99.90
36594;DHT22;22603;47.900;8.146;2023-03-05T05:57:12;-2.60;99.90
36594;DHT22;22603;47.900;8.146;2023-03-05T06:00:00;-2.40;99.90
36594;DHT22;22603;47.900;8.146;2023-03-05T06:02:48;-2.60;99.90
36594;DHT22;22603;47.900;8.146;2023-03-05T06:05:35;-2.50;99.90
36594;DHT22;22603;47.900;8.146;2023-03-05T06:08:22;-2.50;99.90
36594;DHT22;22603;47.900;8.146;2023-03-05T06:11:10;-2.50;99.90
36594;DHT22;22603;47.900;8.146;2023-03-05T06:13:57;-2.50;99.90
36594;DHT22;22603;47.900;8.146;2023-03-05T06:16:48;-2.30;99.90
36594;DHT22;22603;47.900;8.146;2023-03-05T06:19:35;-2.00;99.90
36594;DHT22;22603;47.900;8.146;2023-03-05T06:22:22;-2.40;99.90
36594;DHT22;22603;47.900;8.146;2023-03-05T06:25:09;-2.30;99.90
36594;DHT22;22603;47.900;8.146;2023-03-05T06:27:56;-2.20;99.90
36594;DHT22;22603;47.900;8.146;2023-03-05T06:30:43;-2.20;99.90
36594;DHT22;22603;47.900;8.146;2023-03-05T06:33:33;-2.00;99.90
36594;DHT22;22603;47.900;8.146;2023-03-05T06:36:21;-2.10;99.90
36594;DHT22;22603;47.900;8.146;2023-03-05T06:39:11;-2.00;99.90
36594;DHT22;22603;47.900;8.146;2023-03-05T06:41:58;-1.60;99.90
36594;DHT22;22603;47.900;8.146;2023-03-05T06:44:45;-1.90;99.90
36594;DHT22;22603;47.900;8.146;2023-03-05T06:47:32;-1.80;99.90
36594;DHT22;22603;47.900;8.146;2023-03-05T06:50:21;-1.80;99.90
36594;DHT22;22603;47.900;8.146;2023-03-05T06:53:08;-1.70;99.90
36594;DHT22;22603;47.900;8.146;2023-03-05T06:55:54;-1.60;99.90
36594;DHT22;22603;47.900;8.146;2023-03-05T06:58:42;-1.50;99.90
36594;DHT22;22603;47.900;8.146;2023-03-05T07:01:30;-1.60;99.90
36594;DHT22;22603;47.900;8.146;2023-03-05T07:04:18;-1.50;99.90
36594;DHT22;22603;47.900;8.146;2023-03-05T07:07:06;-1.50;99.90
36594;DHT22;22603;47.900;8.146;2023-03-05T07:09:53;-1.30;99.90
36594;DHT22;22603;47.900;8.146;2023-03-05T07:12:40;-1.50;99.90
36594;DHT22;22603;47.900;8.146;2023-03-05T07:15:28;-1.40;99.90
36594;DHT22;22603;47.900;8.146;2023-03-05T07:18:15;-1.50;99.90
36594;DHT22;22603;47.900;8.146;2023-03-05T07:21:03;-1.50;99.90
36594;DHT22;22603;47.900;8.146;2023-03-05T07:23:53;-1.70;99.90
36594;DHT22;22603;47.900;8.146;2023-03-05T07:26:40;-1.70;99.90
36594;DHT22;22603;47.900;8.146;2023-03-05T07:29:28;-1.60;99.90
36594;DHT22;22603;47.900;8.146;2023-03-05T07:32:15;-1.30;99.90
36594;DHT22;22603;47.900;8.146;2023-03-05T07:35:03;-1.40;99.90
36594;DHT22;22603;47.900;8.146;2023-03-05T07:37:50;-1.10;99.90
36594;DHT22;22603;47.900;8.146;2023-03-05T07:40:40;-0.80;99.90
36594;DHT22;22603;47.900;8.146;2023-03-05T07:43:27;-0.40;99.90
36594;DHT22;22603;47.900;8.146;2023-03-05T07:46:16;-0.30;99.90
36594;DHT22;22603;47.900;8.146;2023-03-05T07:49:04;-0.60;99.90
36594;DHT22;22603;47.900;8.146;2023-03-05T07:51:51;-0.90;99.90
36594;DHT22;22603;47.900;8.146;2023-03-05T07:54:38;-1.00;99.90
36594;DHT22;22603;47.900;8.146;2023-03-05T07:57:27;-0.90;99.90
36594;DHT22;22603;47.900;8.146;2023-03-05T08:00:17;-0.70;99.90
36594;DHT22;22603;47.900;8.146;2023-03-05T08:03:04;-0.40;99.90
36594;DHT22;22603;47.900;8.146;2023-03-05T08:05:51;-0.40;99.90
36594;DHT22;22603;47.900;8.146;2023-03-05T08:08:38;-0.30;99.90
36594;DHT22;22603;47.900;8.146;2023-03-05T08:11:26;-0.10;99.90
36594;DHT22;22603;47.900;8.146;2023-03-05T08:14:15;-0.10;99.90
36594;DHT22;22603;47.900;8.146;2023-03-05T08:17:03;0.10;99.90
36594;DHT22;22603;47.900;8.146;2023-03-05T08:19:49;0.20;99.90
36594;DHT22;22603;47.900;8.146;2023-03-05T08:22:38;0.10;99.90
36594;DHT22;22603;47.900;8.146;2023-03-05T08:25:25;0.20;99.90
36594;DHT22;22603;47.900;8.146;2023-03-05T08:28:12;0.40;99.90
36594;DHT22;22603;47.900;8.146;2023-03-05T08:31:00;0.50;99.90
36594;DHT22;22603;47.900;8.146;2023-03-05T08:33:54;0.70;99.90
36594;DHT22;22603;47.900;8.146;2023-03-05T08:36:42;0.40;99.90
36594;DHT22;22603;47.900;8.146;2023-03-05T08:39:28;0.20;99.90
36594;DHT22;22603;47.900;8.146;2023-03-05T08:42:15;0.50;99.90
36594;DHT22;22603;47.900;8.146;2023-03-05T08:45:02;0.40;99.90
36594;DHT22;22603;47.900;8.146;2023-03-05T08:47:51;0.60;99.90
36594;DHT22;22603;47.900;8.146;2023-03-05T08:50:37;0.70;99.90
36594;DHT22;22603;47.900;8.146;2023-03-05T08:53:27;0.90;99.90
36594;DHT22;22603;47.900;8.146;2023-03-05T08:56:14;1.10;99.90
36594;DHT22;22603;47.900;8.146;2023-03-05T08:59:02;1.20;99.90
36594;DHT22;22603;47.900;8.146;2023-03-05T09:01:49;1.50;99.90
36594;DHT22;22603;47.900;8.146;2023-03-05T09:04:38;1.60;99.90
36594;DHT22;22603;47.900;8.146;2023-03-05T09:07:25;1.70;99.90
36594;DHT22;22603;47.900;8.146;2023-03-05T09:10:12;1.70;99.90
36594;DHT22;22603;47.900;8.146;2023-03-05T09:13:02;1.30;99.90
36594;DHT22;22603;47.900;8.146;2023-03-05T09:15:53;1.30;99.90
36594;DHT22;22603;47.900;8.146;2023-03-05T09:18:41;1.40;99.90
36594;DHT22;22603;47.900;8.146;2023-03-05T09:21:29;1.60;99.90
36594;DHT22;22603;47.900;8.146;2023-03-05T09:24:16;2.00;99.90
36594;DHT22;22603;47.900;8.146;2023-03-05T09:27:03;2.10;99.90
36594;DHT22;22603;47.900;8.146;2023-03-05T09:29:51;1.50;99.90
36594;DHT22;22603;47.900;8.146;2023-03-05T09:32:41;1.20;99.90
36594;DHT22;22603;47.900;8.146;2023-03-05T09:35:29;1.00;99.90
36594;DHT22;22603;47.900;8.146;2023-03-05T09:38:18;1.00;99.90
36594;DHT22;22603;47.900;8.146;2023-03-05T09:41:14;1.20;99.90
36594;DHT22;22603;47.900;8.146;2023-03-05T09:44:15;1.50;99.90
36594;DHT22;22603;47.900;8.146;2023-03-05T09:47:19;2.00;99.90
36594;DHT22;22603;47.900;8.146;2023-03-05T09:50:21;2.00;99.90
36594;DHT22;22603;47.900;8.146;2023-03-05T09:53:22;1.80;99.90
36594;DHT22;22603;47.900;8.146;2023-03-05T09:56:15;2.10;99.90
36594;DHT22;22603;47.900;8.146;2023-03-05T09:59:16;2.10;99.90
36594;DHT22;22603;47.900;8.146;2023-03-05T10:02:13;2.20;99.90
36594;DHT22;22603;47.900;8.146;2023-03-05T10:05:11;2.10;99.90
36594;DHT22;22603;47.900;8.146;2023-03-05T10:08:01;2.20;99.90
36594;DHT22;22603;47.900;8.146;2023-03-05T10:10:52;2.30;99.90
36594;DHT22;22603;47.900;8.146;2023-03-05T10:13:42;2.60;99.90
36594;DHT22;22603;47.900;8.146;2023-03-05T10:16:44;3.10;99.90
36594;DHT22;22603;47.900;8.146;2023-03-05T10:19:54;3.10;99.90
36594;DHT22;22603;47.900;8.146;2023-03-05T10:22:53;3.00;99.90
36594;DHT22;22603;47.900;8.146;2023-03-05T10:25:55;3.20;99.90
36594;DHT22;22603;47.900;8.146;2023-03-05T10:28:50;3.40;99.90
36594;DHT22;22603;47.900;8.146;2023-03-05T10:31:51;3.70;99.90
36594;DHT22;22603;47.900;8.146;2023-03-05T10:35:06;3.60;99.90
36594;DHT22;22603;47.900;8.146;2023-03-05T10:38:08;3.80;99.90
36594;DHT22;22603;47.900;8.146;2023-03-05T10:41:00;4.00;99.90
36594;DHT22;22603;47.900;8.146;2023-03-05T10:43:56;4.00;99.90
36594;DHT22;22603;47.900;8.146;2023-03-05T10:46:47;3.90;99.90
36594;DHT22;22603;47.900;8.146;2023-03-05T10:49:37;4.30;99.90
36594;DHT22;22603;47.900;8.146;2023-03-05T10:52:34;4.40;99.90
36594;DHT22;22603;47.900;8.146;2023-03-05T10:55:22;4.40;99.90
36594;DHT22;22603;47.900;8.146;2023-03-05T10:58:12;4.50;99.90
36594;DHT22;22603;47.900;8.146;2023-03-05T11:01:02;4.50;99.90
36594;DHT22;22603;47.900;8.146;2023-03-05T11:03:54;4.40;99.90
36594;DHT22;22603;47.900;8.146;2023-03-05T11:06:42;4.20;99.90
36594;DHT22;22603;47.900;8.146;2023-03-05T11:09:31;4.30;99.90
36594;DHT22;22603;47.900;8.146;2023-03-05T11:12:18;5.60;99.90
36594;DHT22;22603;47.900;8.146;2023-03-05T11:15:25;6.60;99.90
36594;DHT22;22603;47.900;8.146;2023-03-05T11:18:19;7.00;99.90
36594;DHT22;22603;47.900;8.146;2023-03-05T11:21:10;7.60;99.90
36594;DHT22;22603;47.900;8.146;2023-03-05T11:24:07;7.20;99.90
36594;DHT22;22603;47.900;8.146;2023-03-05T11:26:58;7.00;99.90
36594;DHT22;22603;47.900;8.146;2023-03-05T11:29:47;7.60;99.90
36594;DHT22;22603;47.900;8.146;2023-03-05T11:32:35;8.60;99.90
36594;DHT22;22603;47.900;8.146;2023-03-05T11:35:30;8.50;99.90
36594;DHT22;22603;47.900;8.146;2023-03-05T11:38:19;9.10;99.90
36594;DHT22;22603;47.900;8.146;2023-03-05T11:41:10;10.20;99.90
36594;DHT22;22603;47.900;8.146;2023-03-05T11:43:58;10.50;99.90
36594;DHT22;22603;47.900;8.146;2023-03-05T11:46:50;11.00;99.90
36594;DHT22;22603;47.900;8.146;2023-03-05T11:49:44;11.20;99.90
36594;DHT22;22603;47.900;8.146;2023-03-05T11:52:39;10.40;99.90
36594;DHT22;22603;47.900;8.146;2023-03-05T11:55:31;11.50;99.90
36594;DHT22;22603;47.900;8.146;2023-03-05T11:58:34;10.80;99.90
36594;DHT22;22603;47.900;8.146;2023-03-05T12:01:24;10.10;99.90
36594;DHT22;22603;47.900;8.146;2023-03-05T12:04:16;10.00;99.90
36594;DHT22;22603;47.900;8.146;2023-03-05T12:07:10;10.30;99.90
36594;DHT22;22603;47.900;8.146;2023-03-05T12:09:57;10.70;99.90
36594;DHT22;22603;47.900;8.146;2023-03-05T12:12:52;11.50;99.90
36594;DHT22;22603;47.900;8.146;2023-03-05T12:15:49;11.10;99.90
36594;DHT22;22603;47.900;8.146;2023-03-05T12:18:49;11.90;99.90
36594;DHT22;22603;47.900;8.146;2023-03-05T12:21:39;11.80;99.90
36594;DHT22;22603;47.900;8.146;2023-03-05T12:24:36;12.00;99.90
36594;DHT22;22603;47.900;8.146;2023-03-05T12:27:34;10.80;99.90
36594;DHT22;22603;47.900;8.146;2023-03-05T12:30:54;10.40;99.90
36594;DHT22;22603;47.900;8.146;2023-03-05T12:33:42;10.80;99.90
36594;DHT22;22603;47.900;8.146;2023-03-05T12:36:35;10.90;99.90
36594;DHT22;22603;47.900;8.146;2023-03-05T12:39:46;11.20;99.90
36594;DHT22;22603;47.900;8.146;2023-03-05T12:42:44;11.50;99.90
36594;DHT22;22603;47.900;8.146;2023-03-05T12:45:37;11.10;99.90
36594;DHT22;22603;47.900;8.146;2023-03-05T12:48:42;10.70;99.90
36594;DHT22;22603;47.900;8.146;2023-03-05T12:51:32;10.90;99.90
36594;DHT22;22603;47.900;8.146;2023-03-05T12:54:27;10.50;99.90
36594;DHT22;22603;47.900;8.146;2023-03-05T12:57:18;9.60;99.90
36594;DHT22;22603;47.900;8.146;2023-03-05T13:00:09;9.30;99.90
36594;DHT22;22603;47.900;8.146;2023-03-05T13:02:59;8.50;99.90
36594;DHT22;22603;47.900;8.146;2023-03-05T13:05:49;8.20;99.90
36594;DHT22;22603;47.900;8.146;2023-03-05T13:08:37;8.40;99.90
36594;DHT22;22603;47.900;8.146;2023-03-05T13:11:24;8.80;99.90
36594;DHT22;22603;47.900;8.146;2023-03-05T13:14:31;9.40;99.90
36594;DHT22;22603;47.900;8.146;2023-03-05T13:17:30;8.40;99.90
36594;DHT22;22603;47.900;8.146;2023-03-05T13:20:33;8.00;99.90
36594;DHT22;22603;47.900;8.146;2023-03-05T13:23:23;7.90;99.90
36594;DHT22;22603;47.900;8.146;2023-03-05T13:26:12;7.70;99.90
36594;DHT22;22603;47.900;8.146;2023-03-05T13:29:06;7.50;99.90
36594;DHT22;22603;47.900;8.146;2023-03-05T13:31:58;7.50;99.90
36594;DHT22;22603;47.900;8.146;2023-03-05T13:34:46;7.60;99.90
36594;DHT22;22603;47.900;8.146;2023-03-05T13:37:36;7.70;99.90
36594;DHT22;22603;47.900;8.146;2023-03-05T13:40:26;7.90;99.90
36594;DHT22;22603;47.900;8.146;2023-03-05T13:43:17;7.60;99.90
36594;DHT22;22603;47.900;8.146;2023-03-05T13:46:05;7.80;99.90
36594;DHT22;22603;47.900;8.146;2023-03-05T13:48:53;7.50;99.90
36594;DHT22;22603;47.900;8.146;2023-03-05T13:51:41;7.40;99.90
36594;DHT22;22603;47.900;8.146;2023-03-05T13:54:28;7.30;99.90
36594;DHT22;22603;47.900;8.146;2023-03-05T13:57:32;7.30;99.90
36594;DHT22;22603;47.900;8.146;2023-03-05T14:00:30;6.90;99.90
36594;DHT22;22603;47.900;8.146;2023-03-05T14:03:22;7.00;99.90
36594;DHT22;22603;47.900;8.146;2023-03-05T14:06:11;6.90;99.90
36594;DHT22;22603;47.900;8.146;2023-03-05T14:09:04;6.80;99.90
36594;DHT22;22603;47.900;8.146;2023-03-05T14:11:57;6.60;99.90
36594;DHT22;22603;47.900;8.146;2023-03-05T14:14:44;6.40;99.90
36594;DHT22;22603;47.900;8.146;2023-03-05T14:17:36;6.40;99.90
36594;DHT22;22603;47.900;8.146;2023-03-05T14:20:26;6.20;99.90
36594;DHT22;22603;47.900;8.146;2023-03-05T14:23:34;6.10;99.90
36594;DHT22;22603;47.900;8.146;2023-03-05T14:26:29;6.10;99.90
36594;DHT22;22603;47.900;8.146;2023-03-05T14:29:20;6.00;99.90
36594;DHT22;22603;47.900;8.146;2023-03-05T14:32:18;6.00;99.90
36594;DHT22;22603;47.900;8.146;2023-03-05T14:35:16;6.10;99.90
36594;DHT22;22603;47.900;8.146;2023-03-05T14:38:05;5.90;99.90
36594;DHT22;22603;47.900;8.146;2023-03-05T14:40:54;6.00;99.90
36594;DHT22;22603;47.900;8.146;2023-03-05T14:43:41;5.70;99.90
36594;DHT22;22603;47.900;8.146;2023-03-05T14:46:28;5.70;99.90
36594;DHT22;22603;47.900;8.146;2023-03-05T14:49:15;5.70;99.90
36594;DHT22;22603;47.900;8.146;2023-03-05T14:52:02;5.60;99.90
36594;DHT22;22603;47.900;8.146;2023-03-05T14:54:51;5.40;99.90
36594;DHT22;22603;47.900;8.146;2023-03-05T14:57:39;5.30;99.90
36594;DHT22;22603;47.900;8.146;2023-03-05T15:00:27;5.20;99.90
36594;DHT22;22603;47.900;8.146;2023-03-05T15:03:16;5.30;99.90
36594;DHT22;22603;47.900;8.146;2023-03-05T15:06:03;5.00;99.90
36594;DHT22;22603;47.900;8.146;2023-03-05T15:08:51;5.10;99.90
36594;DHT22;22603;47.900;8.146;2023-03-05T15:11:38;5.10;99.90
36594;DHT22;22603;47.900;8.146;2023-03-05T15:14:26;4.80;99.90
36594;DHT22;22603;47.900;8.146;2023-03-05T15:17:17;4.80;99.90
36594;DHT22;22603;47.900;8.146;2023-03-05T15:20:06;4.80;99.90
36594;DHT22;22603;47.900;8.146;2023-03-05T15:22:56;4.70;99.90
36594;DHT22;22603;47.900;8.146;2023-03-05T15:25:43;4.40;99.90
36594;DHT22;22603;47.900;8.146;2023-03-05T15:28:32;4.30;99.90
36594;DHT22;22603;47.900;8.146;2023-03-05T15:31:22;4.30;99.90
36594;DHT22;22603;47.900;8.146;2023-03-05T15:34:11;4.10;99.90
36594;DHT22;22603;47.900;8.146;2023-03-05T15:36:59;4.00;99.90
36594;DHT22;22603;47.900;8.146;2023-03-05T15:39:46;4.00;99.90
36594;DHT22;22603;47.900;8.146;2023-03-05T15:42:33;4.20;99.90
36594;DHT22;22603;47.900;8.146;2023-03-05T15:45:21;4.10;99.90
36594;DHT22;22603;47.900;8.146;2023-03-05T15:48:11;4.10;99.90
36594;DHT22;22603;47.900;8.146;2023-03-05T15:50:58;4.10;99.90
36594;DHT22;22603;47.900;8.146;2023-03-05T15:53:46;4.00;99.90
36594;DHT22;22603;47.900;8.146;2023-03-05T15:56:33;4.00;99.90
36594;DHT22;22603;47.900;8.146;2023-03-05T15:59:20;3.70;99.90
36594;DHT22;22603;47.900;8.146;2023-03-05T16:02:07;3.60;99.90
36594;DHT22;22603;47.900;8.146;2023-03-05T16:04:56;3.70;99.90
36594;DHT22;22603;47.900;8.146;2023-03-05T16:07:44;3.60;99.90
36594;DHT22;22603;47.900;8.146;2023-03-05T16:10:36;3.40;99.90
36594;DHT22;22603;47.900;8.146;2023-03-05T16:13:25;3.50;99.90
36594;DHT22;22603;47.900;8.146;2023-03-05T16:16:14;3.40;99.90
36594;DHT22;22603;47.900;8.146;2023-03-05T16:19:01;3.40;99.90
36594;DHT22;22603;47.900;8.146;2023-03-05T16:21:50;3.40;99.90
36594;DHT22;22603;47.900;8.146;2023-03-05T16:24:37;3.20;99.90
36594;DHT22;22603;47.900;8.146;2023-03-05T16:27:24;3.30;99.90
36594;DHT22;22603;47.900;8.146;2023-03-05T16:30:17;3.10;99.90
36594;DHT22;22603;47.900;8.146;2023-03-05T16:33:05;3.00;99.90
36594;DHT22;22603;47.900;8.146;2023-03-05T16:36:17;3.00;99.90
36594;DHT22;22603;47.900;8.146;2023-03-05T16:39:06;3.00;99.90
36594;DHT22;22603;47.900;8.146;2023-03-05T16:41:54;3.10;99.90
36594;DHT22;22603;47.900;8.146;2023-03-05T16:44:43;2.90;99.90
36594;DHT22;22603;47.900;8.146;2023-03-05T16:47:29;2.80;99.90
36594;DHT22;22603;47.900;8.146;2023-03-05T16:50:19;2.70;99.90
36594;DHT22;22603;47.900;8.146;2023-03-05T16:53:06;2.70;99.90
36594;DHT22;22603;47.900;8.146;2023-03-05T16:55:55;2.70;99.90
36594;DHT22;22603;47.900;8.146;2023-03-05T16:58:42;2.60;99.90
36594;DHT22;22603;47.900;8.146;2023-03-05T17:01:29;2.50;99.90
36594;DHT22;22603;47.900;8.146;2023-03-05T17:04:16;2.40;99.90
36594;DHT22;22603;47.900;8.146;2023-03-05T17:07:04;2.40;99.90
36594;DHT22;22603;47.900;8.146;2023-03-05T17:09:51;2.30;99.90
36594;DHT22;22603;47.900;8.146;2023-03-05T17:12:39;2.30;99.90
36594;DHT22;22603;47.900;8.146;2023-03-05T17:15:28;2.30;99.90
36594;DHT22;22603;47.900;8.146;2023-03-05T17:18:14;2.20;99.90
36594;DHT22;22603;47.900;8.146;2023-03-05T17:21:03;2.10;99.90
36594;DHT22;22603;47.900;8.146;2023-03-05T17:23:51;2.00;99.90
36594;DHT22;22603;47.900;8.146;2023-03-05T17:26:41;2.00;99.90
36594;DHT22;22603;47.900;8.146;2023-03-05T17:29:29;2.10;99.90
36594;DHT22;22603;47.900;8.146;2023-03-05T17:32:17;1.90;99.90
36594;DHT22;22603;47.900;8.146;2023-03-05T17:35:04;1.90;99.90
36594;DHT22;22603;47.900;8.146;2023-03-05T17:37:51;1.80;99.90
36594;DHT22;22603;47.900;8.146;2023-03-05T17:40:40;1.80;99.90
36594;DHT22;22603;47.900;8.146;2023-03-05T17:43:27;1.70;99.90
36594;DHT22;22603;47.900;8.146;2023-03-05T17:46:15;1.80;99.90
36594;DHT22;22603;47.900;8.146;2023-03-05T17:49:03;1.70;99.90
36594;DHT22;22603;47.900;8.146;2023-03-05T17:51:50;1.80;99.90
36594;DHT22;22603;47.900;8.146;2023-03-05T17:54:37;1.80;99.90
36594;DHT22;22603;47.900;8.146;2023-03-05T17:57:24;1.80;99.90
36594;DHT22;22603;47.900;8.146;2023-03-05T18:00:14;1.80;99.90